sensor_id;sensor_type;location;lat;lon;timestamp;pressure;altitude;pressure_sealevel;temperature;humidity
73151;BME280;61354;50.758;6.106;2024-02-26T00:02:34;97130.06;;;9.08;78.04
73151;BME280;61354;50.758;6.106;2024-02-26T00:05:21;97136.81;;;8.96;79.30
73151;BME280;61354;50.758;6.106;2024-02-26T00:08:05;97126.91;;;8.91;79.66
73151;BME280;61354;50.758;6.106;2024-02-26T00:10:49;97125.34;;;8.80;79.47
73151;BME280;61354;50.758;6.106;2024-02-26T00:13:33;97112.28;;;8.66;81.61
73151;BME280;61354;50.758;6.106;2024-02-26T00:16:18;97113.06;;;8.74;81.17
73151;BME280;61354;50.758;6.106;2024-02-26T00:19:02;97106.34;;;8.46;83.04
73151;BME280;61354;50.758;6.106;2024-02-26T00:21:46;97102.41;;;8.61;83.48
73151;BME280;61354;50.758;6.106;2024-02-26T00:24:30;97094.50;;;8.63;83.20
73151;BME280;61354;50.758;6.106;2024-02-26T00:27:14;97090.50;;;8.21;84.72
73151;BME280;61354;50.758;6.106;2024-02-26T00:29:58;97099.22;;;8.45;84.32
73151;BME280;61354;50.758;6.106;2024-02-26T00:32:42;97100.41;;;8.37;84.58
73151;BME280;61354;50.758;6.106;2024-02-26T00:35:26;97106.25;;;8.21;84.58
73151;BME280;61354;50.758;6.106;2024-02-26T00:38:10;97106.75;;;8.52;84.37
73151;BME280;61354;50.758;6.106;2024-02-26T00:40:54;97109.41;;;8.16;84.97
73151;BME280;61354;50.758;6.106;2024-02-26T00:43:38;97106.25;;;8.10;86.62
73151;BME280;61354;50.758;6.106;2024-02-26T00:46:24;97103.88;;;8.05;87.48
73151;BME280;61354;50.758;6.106;2024-02-26T00:49:08;97102.38;;;8.43;86.16
73151;BME280;61354;50.758;6.106;2024-02-26T00:51:52;97113.84;;;8.42;85.96
73151;BME280;61354;50.758;6.106;2024-02-26T00:54:36;97116.16;;;8.26;87.06
73151;BME280;61354;50.758;6.106;2024-02-26T00:57:20;97113.44;;;8.54;85.66
73151;BME280;61354;50.758;6.106;2024-02-26T01:00:04;97115.03;;;8.41;87.37
73151;BME280;61354;50.758;6.106;2024-02-26T01:02:48;97112.25;;;8.44;85.65
73151;BME280;61354;50.758;6.106;2024-02-26T01:05:32;97103.88;;;8.12;88.23
73151;BME280;61354;50.758;6.106;2024-02-26T01:08:17;97107.06;;;8.21;87.73
73151;BME280;61354;50.758;6.106;2024-02-26T01:11:01;97090.16;;;8.48;87.12
73151;BME280;61354;50.758;6.106;2024-02-26T01:13:45;97104.66;;;8.16;87.11
73151;BME280;61354;50.758;6.106;2024-02-26T01:16:29;97102.34;;;8.33;88.01
73151;BME280;61354;50.758;6.106;2024-02-26T01:19:14;97100.03;;;8.42;87.20
73151;BME280;61354;50.758;6.106;2024-02-26T01:21:59;97094.09;;;8.40;86.10
73151;BME280;61354;50.758;6.106;2024-02-26T01:24:43;97106.31;;;8.35;88.31
73151;BME280;61354;50.758;6.106;2024-02-26T01:27:27;97103.97;;;8.41;85.97
73151;BME280;61354;50.758;6.106;2024-02-26T01:30:11;97099.53;;;8.11;88.08
73151;BME280;61354;50.758;6.106;2024-02-26T01:32:55;97094.72;;;7.87;89.44
73151;BME280;61354;50.758;6.106;2024-02-26T01:35:39;97099.56;;;8.33;88.25
73151;BME280;61354;50.758;6.106;2024-02-26T01:38:23;97090.53;;;8.43;88.59
73151;BME280;61354;50.758;6.106;2024-02-26T01:41:07;97099.94;;;8.24;89.02
73151;BME280;61354;50.758;6.106;2024-02-26T01:43:51;97093.66;;;8.31;89.07
73151;BME280;61354;50.758;6.106;2024-02-26T01:46:35;97085.72;;;8.01;89.50
73151;BME280;61354;50.758;6.106;2024-02-26T01:49:20;97088.09;;;8.16;89.75
73151;BME280;61354;50.758;6.106;2024-02-26T01:52:04;97092.44;;;8.17;89.61
73151;BME280;61354;50.758;6.106;2024-02-26T01:54:50;97090.50;;;8.36;88.58
73151;BME280;61354;50.758;6.106;2024-02-26T01:57:34;97090.50;;;8.36;88.83
73151;BME280;61354;50.758;6.106;2024-02-26T02:00:19;97086.50;;;8.15;88.80
73151;BME280;61354;50.758;6.106;2024-02-26T02:03:04;97089.34;;;8.44;89.72
73151;BME280;61354;50.758;6.106;2024-02-26T02:05:49;97086.19;;;8.42;88.37
73151;BME280;61354;50.758;6.106;2024-02-26T02:08:33;97092.47;;;8.32;89.55
73151;BME280;61354;50.758;6.106;2024-02-26T02:11:19;97081.00;;;8.33;89.75
73151;BME280;61354;50.758;6.106;2024-02-26T02:14:02;97084.22;;;8.53;89.42
73151;BME280;61354;50.758;6.106;2024-02-26T02:16:47;97084.22;;;8.57;88.10
73151;BME280;61354;50.758;6.106;2024-02-26T02:19:31;97073.16;;;8.39;89.59
73151;BME280;61354;50.758;6.106;2024-02-26T02:22:15;97085.72;;;8.15;90.80
73151;BME280;61354;50.758;6.106;2024-02-26T02:24:59;97084.59;;;8.41;89.97
73151;BME280;61354;50.758;6.106;2024-02-26T02:27:44;97088.09;;;8.16;90.81
73151;BME280;61354;50.758;6.106;2024-02-26T02:30:30;97089.38;;;8.51;89.07
73151;BME280;61354;50.758;6.106;2024-02-26T02:33:15;97083.44;;;8.38;90.63
73151;BME280;61354;50.758;6.106;2024-02-26T02:36:00;97084.22;;;8.46;89.35
73151;BME280;61354;50.758;6.106;2024-02-26T02:38:51;97081.75;;;8.12;90.48
73151;BME280;61354;50.758;6.106;2024-02-26T02:41:35;97082.63;;;8.38;91.57
73151;BME280;61354;50.758;6.106;2024-02-26T02:44:19;97085.72;;;8.18;91.06
73151;BME280;61354;50.758;6.106;2024-02-26T02:47:03;97079.38;;;8.07;90.72
73151;BME280;61354;50.758;6.106;2024-02-26T02:49:47;97085.31;;;8.09;91.80
73151;BME280;61354;50.758;6.106;2024-02-26T02:52:31;97079.41;;;8.14;92.04
73151;BME280;61354;50.758;6.106;2024-02-26T02:55:16;97079.47;;;8.54;90.21
73151;BME280;61354;50.758;6.106;2024-02-26T02:58:00;97073.84;;;7.93;92.65
73151;BME280;61354;50.758;6.106;2024-02-26T03:00:44;97079.81;;;8.09;92.69
73151;BME280;61354;50.758;6.106;2024-02-26T03:03:28;97072.31;;;8.35;92.24
73151;BME280;61354;50.758;6.106;2024-02-26T03:06:12;97077.84;;;8.13;92.82
73151;BME280;61354;50.758;6.106;2024-02-26T03:08:56;97069.16;;;8.22;92.41
73151;BME280;61354;50.758;6.106;2024-02-26T03:11:40;97070.41;;;8.46;92.12
73151;BME280;61354;50.758;6.106;2024-02-26T03:14:24;97074.66;;;8.29;93.15
73151;BME280;61354;50.758;6.106;2024-02-26T03:17:09;97074.66;;;8.29;93.24
73151;BME280;61354;50.758;6.106;2024-02-26T03:19:53;97081.78;;;8.09;94.42
73151;BME280;61354;50.758;6.106;2024-02-26T03:22:41;97077.09;;;8.45;93.04
73151;BME280;61354;50.758;6.106;2024-02-26T03:25:25;97074.28;;;8.20;94.50
73151;BME280;61354;50.758;6.106;2024-02-26T03:28:09;97075.06;;;8.13;94.84
73151;BME280;61354;50.758;6.106;2024-02-26T03:30:53;97069.16;;;8.22;94.82
73151;BME280;61354;50.758;6.106;2024-02-26T03:33:36;97079.41;;;8.29;94.43
73151;BME280;61354;50.758;6.106;2024-02-26T03:36:21;97076.31;;;8.44;93.63
73151;BME280;61354;50.758;6.106;2024-02-26T03:39:08;97080.19;;;8.15;94.39
73151;BME280;61354;50.758;6.106;2024-02-26T03:41:52;97083.34;;;8.06;95.51
73151;BME280;61354;50.758;6.106;2024-02-26T03:44:36;97088.09;;;8.20;93.13
73151;BME280;61354;50.758;6.106;2024-02-26T03:47:20;97087.28;;;8.16;94.11
73151;BME280;61354;50.758;6.106;2024-02-26T03:50:05;97092.00;;;7.94;95.40
73151;BME280;61354;50.758;6.106;2024-02-26T03:52:49;97091.25;;;8.11;94.39
73151;BME280;61354;50.758;6.106;2024-02-26T03:55:34;97094.38;;;7.99;95.33
73151;BME280;61354;50.758;6.106;2024-02-26T03:58:18;97097.56;;;8.12;95.28
73151;BME280;61354;50.758;6.106;2024-02-26T04:01:02;97091.28;;;8.26;94.40
73151;BME280;61354;50.758;6.106;2024-02-26T04:03:46;97095.22;;;8.32;94.59
73151;BME280;61354;50.758;6.106;2024-02-26T04:06:30;97088.84;;;8.03;97.26
73151;BME280;61354;50.758;6.106;2024-02-26T04:09:14;97079.38;;;7.93;97.67
73151;BME280;61354;50.758;6.106;2024-02-26T04:11:59;97085.66;;;7.90;97.25
73151;BME280;61354;50.758;6.106;2024-02-26T04:14:42;97081.38;;;8.14;95.05
73151;BME280;61354;50.758;6.106;2024-02-26T04:17:26;97091.97;;;7.90;96.33
73151;BME280;61354;50.758;6.106;2024-02-26T04:20:14;97095.59;;;8.05;94.76
73151;BME280;61354;50.758;6.106;2024-02-26T04:22:59;97090.44;;;8.07;94.28
73151;BME280;61354;50.758;6.106;2024-02-26T04:25:43;97089.69;;;8.17;93.33
73151;BME280;61354;50.758;6.106;2024-02-26T04:28:27;97088.41;;;7.83;95.78
73151;BME280;61354;50.758;6.106;2024-02-26T04:31:13;97084.53;;;8.16;94.24
73151;BME280;61354;50.758;6.106;2024-02-26T04:33:57;97091.19;;;7.93;95.16
73151;BME280;61354;50.758;6.106;2024-02-26T04:36:41;97090.44;;;8.07;94.64
73151;BME280;61354;50.758;6.106;2024-02-26T04:39:26;97083.31;;;7.99;93.87
73151;BME280;61354;50.758;6.106;2024-02-26T04:42:10;97090.38;;;7.86;96.16
73151;BME280;61354;50.758;6.106;2024-02-26T04:44:54;97093.56;;;7.95;95.75
73151;BME280;61354;50.758;6.106;2024-02-26T04:47:38;97092.00;;;7.94;95.97
73151;BME280;61354;50.758;6.106;2024-02-26T04:50:23;97084.88;;;7.93;94.70
73151;BME280;61354;50.758;6.106;2024-02-26T04:53:07;97088.03;;;7.95;95.75
73151;BME280;61354;50.758;6.106;2024-02-26T04:55:52;97090.34;;;7.79;97.19
73151;BME280;61354;50.758;6.106;2024-02-26T04:58:36;97088.03;;;7.95;95.53
73151;BME280;61354;50.758;6.106;2024-02-26T05:01:19;97098.66;;;7.82;96.69
73151;BME280;61354;50.758;6.106;2024-02-26T05:04:03;97095.94;;;7.89;96.65
73151;BME280;61354;50.758;6.106;2024-02-26T05:06:47;97094.34;;;7.85;95.82
73151;BME280;61354;50.758;6.106;2024-02-26T05:09:31;97100.28;;;7.90;96.42
73151;BME280;61354;50.758;6.106;2024-02-26T05:12:16;97101.84;;;7.91;97.03
73151;BME280;61354;50.758;6.106;2024-02-26T05:15:00;97099.00;;;7.66;97.34
73151;BME280;61354;50.758;6.106;2024-02-26T05:17:44;97103.81;;;7.80;98.75
73151;BME280;61354;50.758;6.106;2024-02-26T05:20:29;97109.72;;;7.82;99.35
73151;BME280;61354;50.758;6.106;2024-02-26T05:23:13;97102.69;;;8.10;97.79
73151;BME280;61354;50.758;6.106;2024-02-26T05:25:57;97109.44;;;8.27;95.82
73151;BME280;61354;50.758;6.106;2024-02-26T05:28:41;97105.06;;;8.01;98.02
73151;BME280;61354;50.758;6.106;2024-02-26T05:31:26;97116.50;;;8.06;97.54
73151;BME280;61354;50.758;6.106;2024-02-26T05:34:10;97107.81;;;8.08;97.64
73151;BME280;61354;50.758;6.106;2024-02-26T05:36:54;97114.03;;;7.72;98.83
73151;BME280;61354;50.758;6.106;2024-02-26T05:39:38;97118.44;;;7.98;98.78
73151;BME280;61354;50.758;6.106;2024-02-26T05:42:23;97117.28;;;8.07;98.62
73151;BME280;61354;50.758;6.106;2024-02-26T05:45:07;97124.41;;;8.11;98.77
73151;BME280;61354;50.758;6.106;2024-02-26T05:47:51;97126.03;;;8.27;97.91
73151;BME280;61354;50.758;6.106;2024-02-26T05:50:36;97124.50;;;8.40;96.30
73151;BME280;61354;50.758;6.106;2024-02-26T05:53:20;97141.50;;;8.42;96.54
73151;BME280;61354;50.758;6.106;2024-02-26T05:56:04;97146.50;;;8.04;98.54
73151;BME280;61354;50.758;6.106;2024-02-26T05:58:50;97146.53;;;8.11;98.57
73151;BME280;61354;50.758;6.106;2024-02-26T06:01:34;97154.34;;;7.84;99.52
73151;BME280;61354;50.758;6.106;2024-02-26T06:04:18;97150.00;;;7.87;99.19
73151;BME280;61354;50.758;6.106;2024-02-26T06:07:02;97148.84;;;7.98;99.67
73151;BME280;61354;50.758;6.106;2024-02-26T06:09:46;97155.13;;;7.85;99.60
73151;BME280;61354;50.758;6.106;2024-02-26T06:12:30;97158.28;;;7.80;99.47
73151;BME280;61354;50.758;6.106;2024-02-26T06:15:14;97163.16;;;8.22;98.96
73151;BME280;61354;50.758;6.106;2024-02-26T06:17:58;97161.03;;;7.83;100.00
73151;BME280;61354;50.758;6.106;2024-02-26T06:20:42;97174.59;;;8.13;99.20
73151;BME280;61354;50.758;6.106;2024-02-26T06:23:26;97169.88;;;8.17;99.26
73151;BME280;61354;50.758;6.106;2024-02-26T06:26:10;97181.38;;;8.34;98.17
73151;BME280;61354;50.758;6.106;2024-02-26T06:28:54;97178.16;;;8.28;98.58
73151;BME280;61354;50.758;6.106;2024-02-26T06:31:38;97185.28;;;8.26;98.20
73151;BME280;61354;50.758;6.106;2024-02-26T06:34:23;97190.03;;;8.21;99.27
73151;BME280;61354;50.758;6.106;2024-02-26T06:37:10;97197.09;;;8.19;98.97
73151;BME280;61354;50.758;6.106;2024-02-26T06:39:54;97193.97;;;8.24;98.74
73151;BME280;61354;50.758;6.106;2024-02-26T06:42:38;97196.38;;;8.36;98.44
73151;BME280;61354;50.758;6.106;2024-02-26T06:45:22;97212.88;;;8.15;99.90
73151;BME280;61354;50.758;6.106;2024-02-26T06:48:06;97206.31;;;8.44;98.61
73151;BME280;61354;50.758;6.106;2024-02-26T06:50:50;97215.34;;;8.34;98.82
73151;BME280;61354;50.758;6.106;2024-02-26T06:53:34;97217.59;;;8.11;99.10
73151;BME280;61354;50.758;6.106;2024-02-26T06:56:19;97222.75;;;8.12;98.87
73151;BME280;61354;50.758;6.106;2024-02-26T06:59:03;97220.09;;;8.34;98.26
73151;BME280;61354;50.758;6.106;2024-02-26T07:01:47;97227.56;;;8.30;98.46
73151;BME280;61354;50.758;6.106;2024-02-26T07:04:31;97231.47;;;8.18;98.85
73151;BME280;61354;50.758;6.106;2024-02-26T07:07:17;97235.06;;;8.33;99.47
73151;BME280;61354;50.758;6.106;2024-02-26T07:10:02;97233.09;;;8.30;100.00
73151;BME280;61354;50.758;6.106;2024-02-26T07:12:47;97243.84;;;8.42;98.61
73151;BME280;61354;50.758;6.106;2024-02-26T07:15:31;97246.84;;;8.15;100.00
73151;BME280;61354;50.758;6.106;2024-02-26T07:18:16;97252.03;;;8.24;99.30
73151;BME280;61354;50.758;6.106;2024-02-26T07:21:04;97249.38;;;8.42;98.88
73151;BME280;61354;50.758;6.106;2024-02-26T07:23:48;97252.41;;;8.22;98.38
73151;BME280;61354;50.758;6.106;2024-02-26T07:26:32;97266.03;;;8.60;97.66
73151;BME280;61354;50.758;6.106;2024-02-26T07:29:16;97268.94;;;8.05;99.67
73151;BME280;61354;50.758;6.106;2024-02-26T07:32:00;97269.78;;;8.23;98.99
73151;BME280;61354;50.758;6.106;2024-02-26T07:34:44;97274.56;;;8.30;99.70
73151;BME280;61354;50.758;6.106;2024-02-26T07:37:28;97275.13;;;7.87;100.00
73151;BME280;61354;50.758;6.106;2024-02-26T07:40:12;97280.00;;;8.12;100.00
73151;BME280;61354;50.758;6.106;2024-02-26T07:42:57;97287.13;;;8.16;100.00
73151;BME280;61354;50.758;6.106;2024-02-26T07:45:41;97289.25;;;8.41;99.38
73151;BME280;61354;50.758;6.106;2024-02-26T07:48:24;97291.72;;;8.60;97.43
73151;BME280;61354;50.758;6.106;2024-02-26T07:51:08;97292.09;;;8.55;98.18
73151;BME280;61354;50.758;6.106;2024-02-26T07:53:52;97302.31;;;8.44;98.26
73151;BME280;61354;50.758;6.106;2024-02-26T07:56:36;97311.50;;;8.69;97.38
73151;BME280;61354;50.758;6.106;2024-02-26T07:59:20;97307.47;;;8.53;98.78
73151;BME280;61354;50.758;6.106;2024-02-26T08:02:04;97304.00;;;8.70;97.46
73151;BME280;61354;50.758;6.106;2024-02-26T08:04:49;97300.75;;;8.50;98.70
73151;BME280;61354;50.758;6.106;2024-02-26T08:07:34;97311.03;;;8.53;98.63
73151;BME280;61354;50.758;6.106;2024-02-26T08:10:18;97313.41;;;8.48;98.13
73151;BME280;61354;50.758;6.106;2024-02-26T08:13:02;97318.53;;;8.42;98.41
73151;BME280;61354;50.758;6.106;2024-02-26T08:15:49;97324.88;;;8.53;100.00
73151;BME280;61354;50.758;6.106;2024-02-26T08:18:34;97329.22;;;8.47;98.13
73151;BME280;61354;50.758;6.106;2024-02-26T08:21:18;97330.84;;;8.62;97.92
73151;BME280;61354;50.758;6.106;2024-02-26T08:24:02;97333.16;;;8.53;99.00
73151;BME280;61354;50.758;6.106;2024-02-26T08:26:46;97337.13;;;8.52;97.91
73151;BME280;61354;50.758;6.106;2024-02-26T08:29:30;97339.50;;;8.57;98.45
73151;BME280;61354;50.758;6.106;2024-02-26T08:32:14;97344.78;;;8.84;96.98
73151;BME280;61354;50.758;6.106;2024-02-26T08:34:58;97349.75;;;8.46;98.50
73151;BME280;61354;50.758;6.106;2024-02-26T08:37:45;97349.41;;;8.62;98.42
73151;BME280;61354;50.758;6.106;2024-02-26T08:40:30;97355.38;;;8.75;98.06
73151;BME280;61354;50.758;6.106;2024-02-26T08:43:14;97354.25;;;8.83;96.93
73151;BME280;61354;50.758;6.106;2024-02-26T08:45:58;97364.16;;;8.84;97.45
73151;BME280;61354;50.758;6.106;2024-02-26T08:48:42;97357.41;;;8.85;97.29
73151;BME280;61354;50.758;6.106;2024-02-26T08:51:26;97365.75;;;8.92;96.99
73151;BME280;61354;50.758;6.106;2024-02-26T08:54:10;97371.63;;;8.80;97.79
73151;BME280;61354;50.758;6.106;2024-02-26T08:56:54;97370.41;;;8.74;96.40
73151;BME280;61354;50.758;6.106;2024-02-26T08:59:38;97379.19;;;8.93;96.54
73151;BME280;61354;50.758;6.106;2024-02-26T09:02:22;97383.50;;;8.80;97.55
73151;BME280;61354;50.758;6.106;2024-02-26T09:05:06;97381.56;;;8.95;96.26
73151;BME280;61354;50.758;6.106;2024-02-26T09:07:50;97387.72;;;8.53;96.99
73151;BME280;61354;50.758;6.106;2024-02-26T09:10:35;97392.22;;;8.86;95.75
73151;BME280;61354;50.758;6.106;2024-02-26T09:13:20;97388.25;;;8.80;96.01
73151;BME280;61354;50.758;6.106;2024-02-26T09:16:05;97394.16;;;8.82;96.77
73151;BME280;61354;50.758;6.106;2024-02-26T09:18:49;97401.41;;;9.11;95.09
73151;BME280;61354;50.758;6.106;2024-02-26T09:21:33;97401.34;;;8.93;95.54
73151;BME280;61354;50.758;6.106;2024-02-26T09:24:17;97407.41;;;8.44;97.37
73151;BME280;61354;50.758;6.106;2024-02-26T09:27:01;97409.22;;;8.84;94.14
73151;BME280;61354;50.758;6.106;2024-02-26T09:29:45;97410.75;;;8.71;94.56
73151;BME280;61354;50.758;6.106;2024-02-26T09:32:30;97411.19;;;8.87;93.84
73151;BME280;61354;50.758;6.106;2024-02-26T09:35:14;97417.84;;;8.72;95.35
73151;BME280;61354;50.758;6.106;2024-02-26T09:37:58;97412.81;;;8.92;93.65
73151;BME280;61354;50.758;6.106;2024-02-26T09:40:41;97424.50;;;8.60;94.77
73151;BME280;61354;50.758;6.106;2024-02-26T09:43:28;97427.66;;;8.55;94.55
73151;BME280;61354;50.758;6.106;2024-02-26T09:46:16;97430.38;;;8.52;94.80
73151;BME280;61354;50.758;6.106;2024-02-26T09:49:04;97440.81;;;8.76;93.00
73151;BME280;61354;50.758;6.106;2024-02-26T09:51:49;97449.81;;;8.59;95.33
73151;BME280;61354;50.758;6.106;2024-02-26T09:54:34;97447.16;;;8.80;94.15
73151;BME280;61354;50.758;6.106;2024-02-26T09:57:19;97446.19;;;8.51;96.26
73151;BME280;61354;50.758;6.106;2024-02-26T10:00:04;97443.19;;;8.78;95.38
73151;BME280;61354;50.758;6.106;2024-02-26T10:02:51;97447.19;;;8.91;94.87
73151;BME280;61354;50.758;6.106;2024-02-26T10:05:37;97450.34;;;8.86;94.43
73151;BME280;61354;50.758;6.106;2024-02-26T10:08:21;97459.13;;;9.02;93.69
73151;BME280;61354;50.758;6.106;2024-02-26T10:11:07;97462.31;;;9.04;95.91
73151;BME280;61354;50.758;6.106;2024-02-26T10:13:52;97460.25;;;8.94;95.33
73151;BME280;61354;50.758;6.106;2024-02-26T10:16:36;97466.66;;;9.05;96.01
73151;BME280;61354;50.758;6.106;2024-02-26T10:19:28;97460.75;;;9.14;95.33
73151;BME280;61354;50.758;6.106;2024-02-26T10:22:13;97471.81;;;9.10;95.11
73151;BME280;61354;50.758;6.106;2024-02-26T10:24:57;97481.25;;;8.99;95.55
73151;BME280;61354;50.758;6.106;2024-02-26T10:27:41;97487.63;;;9.10;95.94
73151;BME280;61354;50.758;6.106;2024-02-26T10:30:27;97490.84;;;9.19;94.83
73151;BME280;61354;50.758;6.106;2024-02-26T10:33:11;97486.81;;;9.02;95.58
73151;BME280;61354;50.758;6.106;2024-02-26T10:35:55;97490.81;;;9.08;96.21
73151;BME280;61354;50.758;6.106;2024-02-26T10:38:39;97495.72;;;9.51;94.61
73151;BME280;61354;50.758;6.106;2024-02-26T10:41:23;97490.44;;;9.24;96.06
73151;BME280;61354;50.758;6.106;2024-02-26T10:44:12;97490.53;;;9.42;95.98
73151;BME280;61354;50.758;6.106;2024-02-26T10:46:56;97494.94;;;9.50;97.31
73151;BME280;61354;50.758;6.106;2024-02-26T10:49:45;97499.16;;;9.23;94.80
73151;BME280;61354;50.758;6.106;2024-02-26T10:52:35;97507.47;;;9.23;97.61
73151;BME280;61354;50.758;6.106;2024-02-26T10:55:20;97505.63;;;9.59;96.24
73151;BME280;61354;50.758;6.106;2024-02-26T10:58:06;97510.03;;;9.67;95.74
73151;BME280;61354;50.758;6.106;2024-02-26T11:00:53;97507.19;;;9.56;96.30
73151;BME280;61354;50.758;6.106;2024-02-26T11:03:38;97516.38;;;9.71;95.88
73151;BME280;61354;50.758;6.106;2024-02-26T11:06:23;97520.22;;;9.45;96.47
73151;BME280;61354;50.758;6.106;2024-02-26T11:09:11;97526.31;;;8.95;99.11
73151;BME280;61354;50.758;6.106;2024-02-26T11:11:59;97530.41;;;9.19;99.24
73151;BME280;61354;50.758;6.106;2024-02-26T11:14:46;97536.69;;;9.16;99.81
73151;BME280;61354;50.758;6.106;2024-02-26T11:17:30;97552.41;;;8.94;100.00
73151;BME280;61354;50.758;6.106;2024-02-26T11:20:15;97547.88;;;9.31;98.92
73151;BME280;61354;50.758;6.106;2024-02-26T11:23:00;97548.41;;;8.85;100.00
73151;BME280;61354;50.758;6.106;2024-02-26T11:25:44;97554.78;;;8.92;100.00
73151;BME280;61354;50.758;6.106;2024-02-26T11:28:29;97556.13;;;9.24;99.31
73151;BME280;61354;50.758;6.106;2024-02-26T11:31:13;97551.06;;;9.36;99.28
73151;BME280;61354;50.758;6.106;2024-02-26T11:33:58;97561.19;;;9.07;99.67
73151;BME280;61354;50.758;6.106;2024-02-26T11:36:42;97555.09;;;9.53;99.50
73151;BME280;61354;50.758;6.106;2024-02-26T11:39:26;97563.56;;;9.05;98.55
73151;BME280;61354;50.758;6.106;2024-02-26T11:42:14;97569.91;;;9.09;98.56
73151;BME280;61354;50.758;6.106;2024-02-26T11:44:58;97571.59;;;9.28;98.41
73151;BME280;61354;50.758;6.106;2024-02-26T11:47:55;97573.69;;;8.80;98.62
73151;BME280;61354;50.758;6.106;2024-02-26T11:53:31;97582.16;;;9.12;99.17
73151;BME280;61354;50.758;6.106;2024-02-26T11:59:11;97582.00;;;8.87;99.22
73151;BME280;61354;50.758;6.106;2024-02-26T12:01:55;97585.09;;;8.71;99.47
73151;BME280;61354;50.758;6.106;2024-02-26T12:04:41;97579.88;;;9.21;98.14
73151;BME280;61354;50.758;6.106;2024-02-26T12:07:25;97590.31;;;8.87;98.44
73151;BME280;61354;50.758;6.106;2024-02-26T12:13:11;97593.09;;;8.87;99.27
73151;BME280;61354;50.758;6.106;2024-02-26T12:15:58;97589.50;;;8.83;100.00
73151;BME280;61354;50.758;6.106;2024-02-26T12:18:44;97596.09;;;9.23;98.73
73151;BME280;61354;50.758;6.106;2024-02-26T12:21:29;97607.81;;;8.98;99.14
73151;BME280;61354;50.758;6.106;2024-02-26T12:24:14;97607.47;;;9.07;99.79
73151;BME280;61354;50.758;6.106;2024-02-26T12:27:02;97622.72;;;8.83;99.27
73151;BME280;61354;50.758;6.106;2024-02-26T12:29:47;97617.41;;;9.15;100.00
73151;BME280;61354;50.758;6.106;2024-02-26T12:32:31;97626.13;;;9.13;99.84
73151;BME280;61354;50.758;6.106;2024-02-26T12:35:16;97629.13;;;8.94;100.00
73151;BME280;61354;50.758;6.106;2024-02-26T12:38:00;97641.16;;;9.12;100.00
73151;BME280;61354;50.758;6.106;2024-02-26T12:40:45;97643.69;;;8.84;100.00
73151;BME280;61354;50.758;6.106;2024-02-26T12:43:29;97652.09;;;8.98;99.85
73151;BME280;61354;50.758;6.106;2024-02-26T12:46:13;97646.34;;;8.73;100.00
73151;BME280;61354;50.758;6.106;2024-02-26T12:48:59;97653.72;;;9.03;100.00
73151;BME280;61354;50.758;6.106;2024-02-26T12:51:44;97648.28;;;9.20;100.00
73151;BME280;61354;50.758;6.106;2024-02-26T12:54:32;97664.81;;;9.06;99.65
73151;BME280;61354;50.758;6.106;2024-02-26T12:57:18;97664.63;;;8.81;100.00
73151;BME280;61354;50.758;6.106;2024-02-26T13:00:03;97673.72;;;9.30;100.00
73151;BME280;61354;50.758;6.106;2024-02-26T13:02:49;97681.69;;;9.42;99.71
73151;BME280;61354;50.758;6.106;2024-02-26T13:05:34;97679.97;;;9.23;99.21
73151;BME280;61354;50.758;6.106;2024-02-26T13:08:20;97679.88;;;9.09;99.81
73151;BME280;61354;50.758;6.106;2024-02-26T13:11:04;97678.81;;;9.28;100.00
73151;BME280;61354;50.758;6.106;2024-02-26T13:13:48;97688.47;;;9.48;98.88
73151;BME280;61354;50.758;6.106;2024-02-26T13:16:33;97685.28;;;8.94;100.00
73151;BME280;61354;50.758;6.106;2024-02-26T13:19:17;97693.94;;;9.37;100.00
73151;BME280;61354;50.758;6.106;2024-02-26T13:22:05;97695.63;;;9.56;99.02
73151;BME280;61354;50.758;6.106;2024-02-26T13:24:56;97695.63;;;9.01;100.00
73151;BME280;61354;50.758;6.106;2024-02-26T13:27:40;97698.69;;;8.89;100.00
73151;BME280;61354;50.758;6.106;2024-02-26T13:30:27;97701.94;;;8.98;100.00
73151;BME280;61354;50.758;6.106;2024-02-26T13:33:12;97696.69;;;9.34;100.00
73151;BME280;61354;50.758;6.106;2024-02-26T13:35:57;97710.94;;;9.36;100.00
73151;BME280;61354;50.758;6.106;2024-02-26T13:38:51;97712.53;;;9.40;100.00
73151;BME280;61354;50.758;6.106;2024-02-26T13:41:35;97715.78;;;9.50;99.83
73151;BME280;61354;50.758;6.106;2024-02-26T13:44:20;97721.00;;;9.07;100.00
73151;BME280;61354;50.758;6.106;2024-02-26T13:47:04;97719.19;;;9.29;99.60
73151;BME280;61354;50.758;6.106;2024-02-26T13:49:48;97721.97;;;9.32;99.55
73151;BME280;61354;50.758;6.106;2024-02-26T13:52:32;97730.34;;;8.91;100.00
73151;BME280;61354;50.758;6.106;2024-02-26T13:55:17;97732.28;;;9.32;99.83
73151;BME280;61354;50.758;6.106;2024-02-26T13:58:01;97729.41;;;9.17;100.00
73151;BME280;61354;50.758;6.106;2024-02-26T14:00:46;97738.63;;;8.91;100.00
73151;BME280;61354;50.758;6.106;2024-02-26T14:03:31;97733.84;;;8.85;100.00
73151;BME280;61354;50.758;6.106;2024-02-26T14:06:16;97743.50;;;9.02;100.00
73151;BME280;61354;50.758;6.106;2024-02-26T14:09:00;97752.31;;;9.14;100.00
73151;BME280;61354;50.758;6.106;2024-02-26T14:11:48;97757.84;;;9.14;100.00
73151;BME280;61354;50.758;6.106;2024-02-26T14:14:32;97758.16;;;9.50;99.77
73151;BME280;61354;50.758;6.106;2024-02-26T14:17:19;97757.53;;;9.23;100.00
73151;BME280;61354;50.758;6.106;2024-02-26T14:20:03;97753.06;;;9.59;99.12
73151;BME280;61354;50.758;6.106;2024-02-26T14:22:49;97759.31;;;9.49;98.87
73151;BME280;61354;50.758;6.106;2024-02-26T14:25:33;97768.53;;;9.12;100.00
73151;BME280;61354;50.758;6.106;2024-02-26T14:28:17;97766.72;;;9.34;100.00
73151;BME280;61354;50.758;6.106;2024-02-26T14:31:01;97771.53;;;8.96;100.00
73151;BME280;61354;50.758;6.106;2024-02-26T14:33:45;97781.34;;;8.90;100.00
73151;BME280;61354;50.758;6.106;2024-02-26T14:36:29;97790.19;;;8.66;100.00
73151;BME280;61354;50.758;6.106;2024-02-26T14:39:13;97796.59;;;8.74;100.00
73151;BME280;61354;50.758;6.106;2024-02-26T14:41:58;97801.00;;;8.78;100.00
73151;BME280;61354;50.758;6.106;2024-02-26T14:44:42;97798.25;;;8.82;100.00
73151;BME280;61354;50.758;6.106;2024-02-26T14:47:26;97811.72;;;8.50;100.00
73151;BME280;61354;50.758;6.106;2024-02-26T14:50:10;97803.72;;;8.41;100.00
73151;BME280;61354;50.758;6.106;2024-02-26T14:52:55;97818.53;;;8.56;100.00